sensor_id;sensor_type;location;lat;lon;timestamp;P1;durP1;ratioP1;P2;durP2;ratioP2
43413;SDS011;29013;49.676;8.606;2022-10-16T00:03:17;2.09;;;0.66;;
43413;SDS011;29013;49.676;8.606;2022-10-16T00:08:43;0.25;;;0.23;;
43413;SDS011;29013;49.676;8.606;2022-10-16T00:14:05;0.75;;;0.37;;
43413;SDS011;29013;49.676;8.606;2022-10-16T00:19:29;0.4;;;0.44;;
43413;SDS011;29013;49.676;8.606;2022-10-16T00:24:56;0.45;;;0.46;;
43413;SDS011;29013;49.676;8.606;2022-10-16T00:30:23;1.26;;;0.41;;
43413;SDS011;29013;49.676;8.606;2022-10-16T00:35:45;0.91;;;0.42;;
43413;SDS011;29013;49.676;8.606;2022-10-16T00:41:11;1.46;;;0.6;;
43413;SDS011;29013;49.676;8.606;2022-10-16T00:46:35;0.66;;;0.55;;
43413;SDS011;29013;49.676;8.606;2022-10-16T00:51:56;2.25;;;0.79;;
43413;SDS011;29013;49.676;8.606;2022-10-16T00:57:20;0.79;;;0.78;;
43413;SDS011;29013;49.676;8.606;2022-10-16T01:02:52;1.59;;;0.93;;
43413;SDS011;29013;49.676;8.606;2022-10-16T01:08:17;2.38;;;1.27;;
43413;SDS011;29013;49.676;8.606;2022-10-16T01:13:45;2.62;;;1.71;;
43413;SDS011;29013;49.676;8.606;2022-10-16T01:19:12;1.79;;;1.51;;
43413;SDS011;29013;49.676;8.606;2022-10-16T01:24:40;3.38;;;1.74;;
43413;SDS011;29013;49.676;8.606;2022-10-16T01:30:09;3.47;;;2.16;;
43413;SDS011;29013;49.676;8.606;2022-10-16T01:35:35;2.67;;;2.0;;
43413;SDS011;29013;49.676;8.606;2022-10-16T01:41:02;3.32;;;2.45;;
43413;SDS011;29013;49.676;8.606;2022-10-16T01:46:28;2.85;;;2.4;;
43413;SDS011;29013;49.676;8.606;2022-10-16T01:51:54;5.32;;;2.49;;
43413;SDS011;29013;49.676;8.606;2022-10-16T01:57:19;3.4;;;2.48;;
43413;SDS011;29013;49.676;8.606;2022-10-16T02:02:47;3.6;;;2.52;;
43413;SDS011;29013;49.676;8.606;2022-10-16T02:08:10;3.64;;;2.63;;
43413;SDS011;29013;49.676;8.606;2022-10-16T02:13:39;3.29;;;2.1;;
43413;SDS011;29013;49.676;8.606;2022-10-16T02:19:05;4.77;;;2.48;;
43413;SDS011;29013;49.676;8.606;2022-10-16T02:24:30;3.07;;;2.31;;
43413;SDS011;29013;49.676;8.606;2022-10-16T02:29:57;3.31;;;2.18;;
43413;SDS011;29013;49.676;8.606;2022-10-16T02:35:18;4.08;;;2.04;;
43413;SDS011;29013;49.676;8.606;2022-10-16T02:40:40;3.41;;;1.99;;
43413;SDS011;29013;49.676;8.606;2022-10-16T02:46:04;3.2;;;1.41;;
43413;SDS011;29013;49.676;8.606;2022-10-16T02:51:32;3.55;;;1.7;;
43413;SDS011;29013;49.676;8.606;2022-10-16T02:56:57;2.0;;;1.5;;
43413;SDS011;29013;49.676;8.606;2022-10-16T03:02:23;2.45;;;1.64;;
43413;SDS011;29013;49.676;8.606;2022-10-16T03:07:50;1.72;;;1.48;;
43413;SDS011;29013;49.676;8.606;2022-10-16T03:13:18;2.65;;;2.17;;
43413;SDS011;29013;49.676;8.606;2022-10-16T03:18:45;1.88;;;1.75;;
43413;SDS011;29013;49.676;8.606;2022-10-16T03:24:11;4.92;;;1.72;;
43413;SDS011;29013;49.676;8.606;2022-10-16T03:29:39;3.09;;;1.89;;
43413;SDS011;29013;49.676;8.606;2022-10-16T03:35:07;3.88;;;1.73;;
43413;SDS011;29013;49.676;8.606;2022-10-16T03:40:30;2.7;;;1.93;;
43413;SDS011;29013;49.676;8.606;2022-10-16T03:45:58;3.08;;;1.68;;
43413;SDS011;29013;49.676;8.606;2022-10-16T03:51:19;1.73;;;1.58;;
43413;SDS011;29013;49.676;8.606;2022-10-16T03:56:47;2.15;;;1.62;;
43413;SDS011;29013;49.676;8.606;2022-10-16T04:02:12;2.58;;;1.41;;
43413;SDS011;29013;49.676;8.606;2022-10-16T04:07:40;3.56;;;1.72;;
43413;SDS011;29013;49.676;8.606;2022-10-16T04:13:07;2.54;;;1.6;;
43413;SDS011;29013;49.676;8.606;2022-10-16T04:18:34;2.9;;;1.9;;
43413;SDS011;29013;49.676;8.606;2022-10-16T04:24:00;3.89;;;2.21;;
43413;SDS011;29013;49.676;8.606;2022-10-16T04:29:27;1.61;;;1.6;;
43413;SDS011;29013;49.676;8.606;2022-10-16T04:34:55;4.08;;;2.46;;
43413;SDS011;29013;49.676;8.606;2022-10-16T04:40:20;2.94;;;1.66;;
43413;SDS011;29013;49.676;8.606;2022-10-16T04:45:43;2.88;;;1.72;;
43413;SDS011;29013;49.676;8.606;2022-10-16T04:51:10;3.64;;;1.89;;
43413;SDS011;29013;49.676;8.606;2022-10-16T04:56:34;2.67;;;1.82;;
43413;SDS011;29013;49.676;8.606;2022-10-16T05:02:00;2.35;;;1.63;;
43413;SDS011;29013;49.676;8.606;2022-10-16T05:07:22;2.8;;;1.56;;
43413;SDS011;29013;49.676;8.606;2022-10-16T05:12:50;2.87;;;1.65;;
43413;SDS011;29013;49.676;8.606;2022-10-16T05:18:16;2.32;;;1.78;;
43413;SDS011;29013;49.676;8.606;2022-10-16T05:23:42;2.59;;;1.52;;
43413;SDS011;29013;49.676;8.606;2022-10-16T05:29:04;2.59;;;1.42;;
43413;SDS011;29013;49.676;8.606;2022-10-16T05:34:31;3.17;;;2.0;;
43413;SDS011;29013;49.676;8.606;2022-10-16T05:39:56;2.01;;;1.78;;
43413;SDS011;29013;49.676;8.606;2022-10-16T05:45:22;2.69;;;1.59;;
43413;SDS011;29013;49.676;8.606;2022-10-16T05:50:47;2.11;;;1.54;;
43413;SDS011;29013;49.676;8.606;2022-10-16T05:56:13;1.9;;;1.51;;
43413;SDS011;29013;49.676;8.606;2022-10-16T06:01:41;3.46;;;1.72;;
43413;SDS011;29013;49.676;8.606;2022-10-16T06:07:09;1.67;;;1.58;;
43413;SDS011;29013;49.676;8.606;2022-10-16T06:12:31;2.08;;;1.81;;
43413;SDS011;29013;49.676;8.606;2022-10-16T06:17:59;2.17;;;1.98;;
43413;SDS011;29013;49.676;8.606;2022-10-16T06:23:24;2.37;;;2.2;;
43413;SDS011;29013;49.676;8.606;2022-10-16T06:28:45;2.65;;;2.04;;
43413;SDS011;29013;49.676;8.606;2022-10-16T06:34:08;4.44;;;2.18;;
43413;SDS011;29013;49.676;8.606;2022-10-16T06:39:30;3.29;;;2.25;;
43413;SDS011;29013;49.676;8.606;2022-10-16T06:44:55;3.64;;;2.35;;
43413;SDS011;29013;49.676;8.606;2022-10-16T06:50:22;2.71;;;2.19;;
43413;SDS011;29013;49.676;8.606;2022-10-16T06:55:50;4.49;;;2.7;;
43413;SDS011;29013;49.676;8.606;2022-10-16T07:01:17;5.48;;;2.61;;
43413;SDS011;29013;49.676;8.606;2022-10-16T07:06:42;5.37;;;3.51;;
43413;SDS011;29013;49.676;8.606;2022-10-16T07:12:15;4.46;;;3.47;;
43413;SDS011;29013;49.676;8.606;2022-10-16T07:17:42;4.53;;;3.27;;
43413;SDS011;29013;49.676;8.606;2022-10-16T07:23:06;4.07;;;2.45;;
43413;SDS011;29013;49.676;8.606;2022-10-16T07:28:31;2.95;;;2.38;;
43413;SDS011;29013;49.676;8.606;2022-10-16T07:33:54;2.9;;;2.37;;
43413;SDS011;29013;49.676;8.606;2022-10-16T07:39:21;2.83;;;2.18;;
43413;SDS011;29013;49.676;8.606;2022-10-16T07:44:48;4.22;;;2.15;;
43413;SDS011;29013;49.676;8.606;2022-10-16T07:50:13;2.8;;;2.21;;
43413;SDS011;29013;49.676;8.606;2022-10-16T07:55:37;3.24;;;1.96;;
43413;SDS011;29013;49.676;8.606;2022-10-16T08:01:02;2.4;;;1.63;;
43413;SDS011;29013;49.676;8.606;2022-10-16T08:06:27;2.52;;;1.61;;
43413;SDS011;29013;49.676;8.606;2022-10-16T08:11:53;4.04;;;1.57;;
43413;SDS011;29013;49.676;8.606;2022-10-16T08:17:22;2.85;;;1.6;;
43413;SDS011;29013;49.676;8.606;2022-10-16T08:22:48;2.39;;;1.55;;
43413;SDS011;29013;49.676;8.606;2022-10-16T08:28:15;1.87;;;1.53;;
43413;SDS011;29013;49.676;8.606;2022-10-16T08:33:38;2.22;;;1.49;;
43413;SDS011;29013;49.676;8.606;2022-10-16T08:39:02;2.6;;;1.48;;
43413;SDS011;29013;49.676;8.606;2022-10-16T08:44:39;3.58;;;1.48;;
43413;SDS011;29013;49.676;8.606;2022-10-16T08:50:24;7.27;;;2.26;;
43413;SDS011;29013;49.676;8.606;2022-10-16T08:55:53;6.54;;;2.03;;
43413;SDS011;29013;49.676;8.606;2022-10-16T09:01:16;3.87;;;2.01;;
43413;SDS011;29013;49.676;8.606;2022-10-16T09:06:42;4.23;;;2.06;;
43413;SDS011;29013;49.676;8.606;2022-10-16T09:12:10;5.58;;;2.57;;
43413;SDS011;29013;49.676;8.606;2022-10-16T09:17:35;4.67;;;2.15;;
43413;SDS011;29013;49.676;8.606;2022-10-16T09:23:07;3.62;;;2.16;;
43413;SDS011;29013;49.676;8.606;2022-10-16T09:28:36;2.46;;;1.58;;
43413;SDS011;29013;49.676;8.606;2022-10-16T09:34:02;1.76;;;1.44;;
43413;SDS011;29013;49.676;8.606;2022-10-16T09:39:25;4.1;;;1.64;;
43413;SDS011;29013;49.676;8.606;2022-10-16T09:44:51;2.53;;;1.6;;
43413;SDS011;29013;49.676;8.606;2022-10-16T09:50:22;1.88;;;1.58;;
43413;SDS011;29013;49.676;8.606;2022-10-16T09:55:50;1.86;;;1.14;;
43413;SDS011;29013;49.676;8.606;2022-10-16T10:01:16;1.19;;;1.25;;
43413;SDS011;29013;49.676;8.606;2022-10-16T10:06:43;1.15;;;0.61;;
43413;SDS011;29013;49.676;8.606;2022-10-16T10:12:16;1.0;;;0.64;;
43413;SDS011;29013;49.676;8.606;2022-10-16T10:17:46;0.42;;;0.52;;
43413;SDS011;29013;49.676;8.606;2022-10-16T10:23:19;0.37;;;0.39;;
43413;SDS011;29013;49.676;8.606;2022-10-16T10:28:44;1.63;;;0.59;;
43413;SDS011;29013;49.676;8.606;2022-10-16T10:34:15;0.68;;;0.5;;
43413;SDS011;29013;49.676;8.606;2022-10-16T10:39:42;0.64;;;0.49;;
43413;SDS011;29013;49.676;8.606;2022-10-16T10:45:18;0.8;;;0.54;;
43413;SDS011;29013;49.676;8.606;2022-10-16T10:50:45;0.63;;;0.55;;
43413;SDS011;29013;49.676;8.606;2022-10-16T10:56:16;1.27;;;0.45;;
43413;SDS011;29013;49.676;8.606;2022-10-16T11:01:44;1.65;;;0.5;;
43413;SDS011;29013;49.676;8.606;2022-10-16T11:07:10;0.91;;;0.45;;
43413;SDS011;29013;49.676;8.606;2022-10-16T11:12:36;0.76;;;0.5;;
43413;SDS011;29013;49.676;8.606;2022-10-16T11:18:02;0.99;;;0.55;;
43413;SDS011;29013;49.676;8.606;2022-10-16T11:23:27;2.05;;;0.63;;
43413;SDS011;29013;49.676;8.606;2022-10-16T11:28:54;0.37;;;0.41;;
43413;SDS011;29013;49.676;8.606;2022-10-16T11:34:17;0.51;;;0.48;;
43413;SDS011;29013;49.676;8.606;2022-10-16T11:39:42;1.07;;;0.56;;
43413;SDS011;29013;49.676;8.606;2022-10-16T11:45:12;0.87;;;0.67;;
43413;SDS011;29013;49.676;8.606;2022-10-16T11:50:38;1.2;;;0.6;;
43413;SDS011;29013;49.676;8.606;2022-10-16T11:56:05;1.73;;;0.76;;
43413;SDS011;29013;49.676;8.606;2022-10-16T12:01:33;1.22;;;0.87;;
43413;SDS011;29013;49.676;8.606;2022-10-16T12:07:02;1.11;;;0.67;;
43413;SDS011;29013;49.676;8.606;2022-10-16T12:12:28;3.12;;;0.64;;
43413;SDS011;29013;49.676;8.606;2022-10-16T12:17:53;0.77;;;0.61;;
43413;SDS011;29013;49.676;8.606;2022-10-16T12:23:19;4.74;;;1.04;;
43413;SDS011;29013;49.676;8.606;2022-10-16T12:28:46;0.91;;;0.87;;
43413;SDS011;29013;49.676;8.606;2022-10-16T12:34:19;0.96;;;0.67;;
43413;SDS011;29013;49.676;8.606;2022-10-16T12:39:44;1.75;;;0.85;;
43413;SDS011;29013;49.676;8.606;2022-10-16T12:45:21;0.73;;;0.7;;
43413;SDS011;29013;49.676;8.606;2022-10-16T12:50:47;2.52;;;0.74;;
43413;SDS011;29013;49.676;8.606;2022-10-16T12:56:14;2.94;;;0.87;;
43413;SDS011;29013;49.676;8.606;2022-10-16T13:01:37;1.61;;;0.75;;
43413;SDS011;29013;49.676;8.606;2022-10-16T13:07:10;2.6;;;0.82;;
43413;SDS011;29013;49.676;8.606;2022-10-16T13:12:45;2.54;;;0.94;;
43413;SDS011;29013;49.676;8.606;2022-10-16T13:18:22;1.21;;;0.62;;
43413;SDS011;29013;49.676;8.606;2022-10-16T13:23:46;0.94;;;0.76;;
43413;SDS011;29013;49.676;8.606;2022-10-16T13:29:12;5.35;;;0.92;;
43413;SDS011;29013;49.676;8.606;2022-10-16T13:34:44;1.12;;;0.71;;
43413;SDS011;29013;49.676;8.606;2022-10-16T13:40:17;2.01;;;0.75;;
43413;SDS011;29013;49.676;8.606;2022-10-16T13:45:39;2.69;;;1.05;;
43413;SDS011;29013;49.676;8.606;2022-10-16T13:51:11;4.89;;;1.05;;
43413;SDS011;29013;49.676;8.606;2022-10-16T13:56:35;1.17;;;1.07;;
43413;SDS011;29013;49.676;8.606;2022-10-16T14:02:05;1.4;;;0.91;;
43413;SDS011;29013;49.676;8.606;2022-10-16T14:07:32;2.48;;;0.89;;
43413;SDS011;29013;49.676;8.606;2022-10-16T14:12:59;0.79;;;0.89;;
43413;SDS011;29013;49.676;8.606;2022-10-16T14:18:21;1.76;;;1.06;;
43413;SDS011;29013;49.676;8.606;2022-10-16T14:23:43;1.35;;;0.94;;
43413;SDS011;29013;49.676;8.606;2022-10-16T14:29:13;3.62;;;1.79;;
43413;SDS011;29013;49.676;8.606;2022-10-16T14:34:39;1.8;;;1.44;;
43413;SDS011;29013;49.676;8.606;2022-10-16T14:40:13;2.61;;;1.04;;
43413;SDS011;29013;49.676;8.606;2022-10-16T14:45:34;2.6;;;0.88;;
43413;SDS011;29013;49.676;8.606;2022-10-16T14:51:01;1.42;;;0.93;;
43413;SDS011;29013;49.676;8.606;2022-10-16T14:56:27;2.69;;;1.26;;
43413;SDS011;29013;49.676;8.606;2022-10-16T15:01:51;4.83;;;1.05;;
43413;SDS011;29013;49.676;8.606;2022-10-16T15:07:17;1.48;;;1.1;;
43413;SDS011;29013;49.676;8.606;2022-10-16T15:12:45;1.63;;;0.8;;
43413;SDS011;29013;49.676;8.606;2022-10-16T15:18:07;2.63;;;0.87;;
43413;SDS011;29013;49.676;8.606;2022-10-16T15:23:29;1.19;;;0.71;;
43413;SDS011;29013;49.676;8.606;2022-10-16T15:28:59;1.47;;;0.86;;
43413;SDS011;29013;49.676;8.606;2022-10-16T15:34:26;1.52;;;0.99;;
43413;SDS011;29013;49.676;8.606;2022-10-16T15:39:55;1.58;;;0.85;;
43413;SDS011;29013;49.676;8.606;2022-10-16T15:45:25;1.06;;;0.86;;
43413;SDS011;29013;49.676;8.606;2022-10-16T15:50:54;2.24;;;1.15;;
43413;SDS011;29013;49.676;8.606;2022-10-16T15:56:24;1.88;;;1.01;;
43413;SDS011;29013;49.676;8.606;2022-10-16T16:01:50;1.23;;;0.95;;
43413;SDS011;29013;49.676;8.606;2022-10-16T16:07:18;6.85;;;1.25;;
43413;SDS011;29013;49.676;8.606;2022-10-16T16:12:42;2.98;;;1.05;;
43413;SDS011;29013;49.676;8.606;2022-10-16T16:18:07;3.36;;;1.12;;
43413;SDS011;29013;49.676;8.606;2022-10-16T16:23:29;1.55;;;1.02;;
43413;SDS011;29013;49.676;8.606;2022-10-16T16:28:54;3.65;;;1.06;;
43413;SDS011;29013;49.676;8.606;2022-10-16T16:34:20;2.21;;;1.13;;
43413;SDS011;29013;49.676;8.606;2022-10-16T16:39:45;2.07;;;0.87;;
43413;SDS011;29013;49.676;8.606;2022-10-16T16:45:08;1.67;;;1.04;;
43413;SDS011;29013;49.676;8.606;2022-10-16T16:50:31;2.39;;;1.12;;
43413;SDS011;29013;49.676;8.606;2022-10-16T17:01:27;3.42;;;1.22;;
43413;SDS011;29013;49.676;8.606;2022-10-16T17:06:52;4.59;;;1.31;;
43413;SDS011;29013;49.676;8.606;2022-10-16T17:12:20;2.26;;;1.36;;
43413;SDS011;29013;49.676;8.606;2022-10-16T17:17:47;3.68;;;1.59;;
43413;SDS011;29013;49.676;8.606;2022-10-16T17:23:12;2.16;;;1.52;;
43413;SDS011;29013;49.676;8.606;2022-10-16T17:28:36;5.3;;;1.54;;
43413;SDS011;29013;49.676;8.606;2022-10-16T17:34:06;3.78;;;1.67;;
43413;SDS011;29013;49.676;8.606;2022-10-16T17:39:28;2.96;;;1.39;;
43413;SDS011;29013;49.676;8.606;2022-10-16T17:44:55;4.97;;;1.87;;
43413;SDS011;29013;49.676;8.606;2022-10-16T17:50:20;4.12;;;1.69;;
43413;SDS011;29013;49.676;8.606;2022-10-16T17:55:46;2.87;;;1.45;;
43413;SDS011;29013;49.676;8.606;2022-10-16T18:01:13;3.69;;;1.5;;
43413;SDS011;29013;49.676;8.606;2022-10-16T18:06:39;3.32;;;1.33;;
43413;SDS011;29013;49.676;8.606;2022-10-16T18:12:03;2.51;;;1.39;;
43413;SDS011;29013;49.676;8.606;2022-10-16T18:17:24;5.64;;;1.84;;
43413;SDS011;29013;49.676;8.606;2022-10-16T18:22:52;3.59;;;1.3;;
43413;SDS011;29013;49.676;8.606;2022-10-16T18:28:39;4.03;;;1.3;;
43413;SDS011;29013;49.676;8.606;2022-10-16T18:34:06;4.79;;;1.59;;
43413;SDS011;29013;49.676;8.606;2022-10-16T18:39:27;2.47;;;1.83;;
43413;SDS011;29013;49.676;8.606;2022-10-16T18:44:54;2.22;;;1.83;;
43413;SDS011;29013;49.676;8.606;2022-10-16T18:50:16;2.37;;;1.79;;
43413;SDS011;29013;49.676;8.606;2022-10-16T18:55:38;3.37;;;1.98;;
43413;SDS011;29013;49.676;8.606;2022-10-16T19:01:04;2.7;;;2.02;;
43413;SDS011;29013;49.676;8.606;2022-10-16T19:06:32;4.75;;;2.35;;
43413;SDS011;29013;49.676;8.606;2022-10-16T19:11:59;4.65;;;2.35;;
43413;SDS011;29013;49.676;8.606;2022-10-16T19:17:27;5.73;;;2.48;;
43413;SDS011;29013;49.676;8.606;2022-10-16T19:22:55;2.67;;;2.16;;
43413;SDS011;29013;49.676;8.606;2022-10-16T19:28:16;3.19;;;2.43;;
43413;SDS011;29013;49.676;8.606;2022-10-16T19:33:45;3.98;;;1.89;;
43413;SDS011;29013;49.676;8.606;2022-10-16T19:39:13;6.83;;;3.34;;
43413;SDS011;29013;49.676;8.606;2022-10-16T19:44:38;5.05;;;2.73;;
43413;SDS011;29013;49.676;8.606;2022-10-16T19:50:00;7.65;;;4.51;;
43413;SDS011;29013;49.676;8.606;2022-10-16T19:55:24;12.06;;;4.71;;
43413;SDS011;29013;49.676;8.606;2022-10-16T20:00:46;7.6;;;4.19;;
43413;SDS011;29013;49.676;8.606;2022-10-16T20:06:13;5.87;;;3.72;;
43413;SDS011;29013;49.676;8.606;2022-10-16T20:11:36;9.1;;;5.05;;
43413;SDS011;29013;49.676;8.606;2022-10-16T20:17:03;5.94;;;2.84;;
43413;SDS011;29013;49.676;8.606;2022-10-16T20:22:31;5.28;;;2.72;;
43413;SDS011;29013;49.676;8.606;2022-10-16T20:27:56;4.18;;;2.51;;
43413;SDS011;29013;49.676;8.606;2022-10-16T20:33:27;4.36;;;2.39;;
43413;SDS011;29013;49.676;8.606;2022-10-16T20:38:55;4.37;;;2.23;;
43413;SDS011;29013;49.676;8.606;2022-10-16T20:44:22;3.69;;;2.34;;
43413;SDS011;29013;49.676;8.606;2022-10-16T20:49:47;2.87;;;2.13;;
43413;SDS011;29013;49.676;8.606;2022-10-16T20:55:13;3.57;;;2.02;;
43413;SDS011;29013;49.676;8.606;2022-10-16T21:00:35;5.07;;;2.36;;
43413;SDS011;29013;49.676;8.606;2022-10-16T21:06:02;6.5;;;3.36;;
43413;SDS011;29013;49.676;8.606;2022-10-16T21:11:29;6.15;;;2.9;;
43413;SDS011;29013;49.676;8.606;2022-10-16T21:16:54;4.87;;;3.03;;
43413;SDS011;29013;49.676;8.606;2022-10-16T21:22:21;3.95;;;2.64;;
43413;SDS011;29013;49.676;8.606;2022-10-16T21:27:45;4.45;;;2.83;;
43413;SDS011;29013;49.676;8.606;2022-10-16T21:33:12;4.7;;;2.73;;
43413;SDS011;29013;49.676;8.606;2022-10-16T21:38:36;5.85;;;3.44;;
43413;SDS011;29013;49.676;8.606;2022-10-16T21:44:05;8.45;;;3.22;;
43413;SDS011;29013;49.676;8.606;2022-10-16T21:49:32;5.12;;;2.97;;
43413;SDS011;29013;49.676;8.606;2022-10-16T21:54:57;5.76;;;2.81;;
43413;SDS011;29013;49.676;8.606;2022-10-16T22:00:23;4.78;;;2.95;;
43413;SDS011;29013;49.676;8.606;2022-10-16T22:05:51;3.19;;;2.44;;
43413;SDS011;29013;49.676;8.606;2022-10-16T22:11:18;5.23;;;2.35;;
43413;SDS011;29013;49.676;8.606;2022-10-16T22:16:38;3.39;;;2.33;;
43413;SDS011;29013;49.676;8.606;2022-10-16T22:22:05;3.74;;;1.87;;
43413;SDS011;29013;49.676;8.606;2022-10-16T22:27:33;4.39;;;2.65;;
43413;SDS011;29013;49.676;8.606;2022-10-16T22:32:59;3.11;;;1.97;;
43413;SDS011;29013;49.676;8.606;2022-10-16T22:38:25;4.55;;;1.75;;
43413;SDS011;29013;49.676;8.606;2022-10-16T22:43:51;4.35;;;1.65;;
43413;SDS011;29013;49.676;8.606;2022-10-16T22:49:16;3.63;;;1.51;;
43413;SDS011;29013;49.676;8.606;2022-10-16T22:54:43;5.72;;;1.95;;
43413;SDS011;29013;49.676;8.606;2022-10-16T23:00:10;3.27;;;1.8;;
43413;SDS011;29013;49.676;8.606;2022-10-16T23:05:36;2.8;;;1.44;;
43413;SDS011;29013;49.676;8.606;2022-10-16T23:11:05;4.21;;;1.58;;
43413;SDS011;29013;49.676;8.606;2022-10-16T23:16:26;1.9;;;1.66;;
43413;SDS011;29013;49.676;8.606;2022-10-16T23:21:55;4.35;;;1.59;;
43413;SDS011;29013;49.676;8.606;2022-10-16T23:27:24;6.1;;;1.76;;
43413;SDS011;29013;49.676;8.606;2022-10-16T23:32:53;3.21;;;1.75;;
43413;SDS011;29013;49.676;8.606;2022-10-16T23:38:17;2.88;;;1.75;;
43413;SDS011;29013;49.676;8.606;2022-10-16T23:43:40;3.66;;;1.59;;
43413;SDS011;29013;49.676;8.606;2022-10-16T23:49:05;6.15;;;1.99;;
43413;SDS011;29013;49.676;8.606;2022-10-16T23:54:31;2.86;;;1.78;;
43413;SDS011;29013;49.676;8.606;2022-10-16T23:59:56;5.04;;;1.71;;
